createdAt,value
2019-01-23T00:00:45.384Z,-5.40
2019-01-23T00:05:52.722Z,-5.50
2019-01-23T00:10:59.282Z,-5.40
2019-01-23T00:16:05.764Z,-5.50
2019-01-23T00:21:11.997Z,-5.50
2019-01-23T00:26:18.234Z,-5.40
2019-01-23T00:31:24.368Z,-5.40
2019-01-23T00:36:30.910Z,-5.50
2019-01-23T00:41:37.378Z,-5.50
2019-01-23T00:46:42.976Z,-5.60
2019-01-23T00:51:49.554Z,-5.80
2019-01-23T00:56:56.232Z,-5.90
2019-01-23T01:02:02.757Z,-6.10
2019-01-23T01:07:09.419Z,-6.30
2019-01-23T01:12:15.950Z,-6.50
2019-01-23T01:17:22.580Z,-6.70
2019-01-23T01:22:29.020Z,-6.90
2019-01-23T01:27:35.136Z,-7.10
2019-01-23T01:32:40.823Z,-7.30
2019-01-23T01:37:46.451Z,-7.50
2019-01-23T01:42:53.176Z,-7.60
2019-01-23T01:47:59.328Z,-7.80
2019-01-23T01:53:05.565Z,-7.90
2019-01-23T01:58:11.887Z,-8.10
2019-01-23T02:03:36.914Z,-8.20
2019-01-23T02:08:43.637Z,-8.30
2019-01-23T02:14:11.643Z,-8.40
2019-01-23T02:19:18.521Z,-8.60
2019-01-23T02:24:43.590Z,-8.60
2019-01-23T02:29:49.223Z,-8.80
2019-01-23T02:34:54.909Z,-8.90
2019-01-23T02:40:01.083Z,-9.10
2019-01-23T02:45:28.296Z,-9.10
2019-01-23T02:50:35.116Z,-9.20
2019-01-23T02:55:40.833Z,-9.20
2019-01-23T03:00:48.548Z,-9.20
2019-01-23T03:05:55.365Z,-9.30
2019-01-23T03:11:01.911Z,-9.30
2019-01-23T03:16:08.384Z,-9.40
2019-01-23T03:21:14.893Z,-9.40
2019-01-23T03:26:21.453Z,-9.50
2019-01-23T03:31:27.927Z,-9.60
2019-01-23T03:36:34.418Z,-9.60
2019-01-23T03:41:41.281Z,-9.60
2019-01-23T03:46:47.917Z,-9.70
2019-01-23T03:51:55.180Z,-9.80
2019-01-23T03:57:20.182Z,-9.80
2019-01-23T04:02:26.775Z,-9.80
2019-01-23T04:07:32.777Z,-9.90
2019-01-23T04:12:38.995Z,-9.90
2019-01-23T04:17:44.634Z,-9.90
2019-01-23T04:23:03.259Z,-9.80
2019-01-23T04:28:09.891Z,-9.80
2019-01-23T04:33:16.775Z,-9.80
2019-01-23T04:38:23.505Z,-9.80
2019-01-23T04:43:30.245Z,-9.80
2019-01-23T04:48:36.744Z,-9.90
2019-01-23T04:53:43.975Z,-9.90
2019-01-23T04:58:50.530Z,-9.90
2019-01-23T05:03:57.332Z,-9.90
2019-01-23T05:09:04.137Z,-9.90
2019-01-23T05:14:33.130Z,-9.90
2019-01-23T05:19:39.431Z,-9.90
2019-01-23T05:24:45.119Z,-9.90
2019-01-23T05:29:55.049Z,-9.90
2019-01-23T05:34:59.904Z,-9.90
2019-01-23T05:40:09.890Z,-9.90
2019-01-23T05:45:16.447Z,-9.90
2019-01-23T05:50:23.054Z,-9.90
2019-01-23T05:55:31.191Z,-10.10
2019-01-23T06:00:37.785Z,-10.00
2019-01-23T06:05:44.559Z,-10.00
2019-01-23T06:10:51.195Z,-10.10
2019-01-23T06:15:57.796Z,-10.10
2019-01-23T06:21:04.345Z,-10.00
2019-01-23T06:26:10.955Z,-10.00
2019-01-23T06:31:17.455Z,-10.00
2019-01-23T06:36:24.354Z,-10.00
2019-01-23T06:41:30.756Z,-10.00
2019-01-23T06:46:55.722Z,-10.00
2019-01-23T06:52:02.264Z,-9.90
2019-01-23T06:57:08.811Z,-9.90
2019-01-23T07:02:15.192Z,-10.00
2019-01-23T07:07:21.501Z,-10.00
2019-01-23T07:12:28.162Z,-10.10
2019-01-23T07:17:35.299Z,-10.10
2019-01-23T07:22:40.920Z,-10.20
2019-01-23T07:27:48.323Z,-10.10
2019-01-23T07:32:54.939Z,-10.10
2019-01-23T07:38:01.690Z,-10.00
2019-01-23T07:43:08.394Z,-9.90
2019-01-23T07:48:14.890Z,-9.70
2019-01-23T07:53:21.486Z,-9.60
2019-01-23T07:58:28.096Z,-9.50
2019-01-23T08:03:56.079Z,-9.20
2019-01-23T08:09:02.611Z,-9.10
2019-01-23T08:14:10.541Z,-8.90
2019-01-23T08:19:17.122Z,-8.70
2019-01-23T08:24:23.730Z,-8.50
2019-01-23T08:29:30.573Z,-8.30
2019-01-23T08:34:36.733Z,-8.20
2019-01-23T08:39:42.420Z,-8.00
2019-01-23T08:44:49.041Z,-7.80
2019-01-23T08:49:55.649Z,-7.60
2019-01-23T08:55:03.335Z,-7.20
2019-01-23T09:06:39.417Z,-6.90
2019-01-23T09:11:45.076Z,-6.80
2019-01-23T09:16:51.779Z,-6.80
2019-01-23T09:21:58.469Z,-6.80
2019-01-23T09:27:04.638Z,-6.60
2019-01-23T09:32:46.804Z,-6.50
2019-01-23T09:38:28.128Z,-6.30
2019-01-23T09:43:52.507Z,-6.00
2019-01-23T09:49:05.921Z,-5.70
2019-01-23T09:54:14.346Z,-5.50
2019-01-23T09:59:20.604Z,-5.20
2019-01-23T10:04:27.090Z,-5.30
2019-01-23T10:09:45.064Z,-5.10
2019-01-23T10:14:51.462Z,-5.00
2019-01-23T10:19:57.824Z,-4.90
2019-01-23T10:25:04.492Z,-4.80
2019-01-23T10:30:14.721Z,-4.60
2019-01-23T10:35:21.068Z,-4.40
2019-01-23T10:40:49.031Z,-4.40
2019-01-23T10:45:55.149Z,-4.40
2019-01-23T10:51:01.557Z,-4.40
2019-01-23T10:56:07.831Z,-4.30
2019-01-23T11:01:15.375Z,-4.40
2019-01-23T11:06:23.105Z,-4.10
2019-01-23T11:11:29.201Z,-3.70
2019-01-23T11:16:47.451Z,-3.60
2019-01-23T11:21:53.834Z,-3.50
2019-01-23T11:27:00.373Z,-3.20
2019-01-23T11:32:06.858Z,-3.20
2019-01-23T11:37:33.846Z,-3.40
2019-01-23T11:42:39.954Z,-3.20
2019-01-23T11:47:45.375Z,-3.20
2019-01-23T11:52:51.000Z,-3.10
2019-01-23T11:57:57.471Z,-3.20
2019-01-23T12:03:03.841Z,-2.70
2019-01-23T12:08:10.405Z,-2.50
2019-01-23T12:13:16.775Z,-2.30
2019-01-23T12:18:22.974Z,-2.40
2019-01-23T12:23:29.191Z,-2.30
2019-01-23T12:28:35.558Z,-2.40
2019-01-23T12:33:40.816Z,-2.20
2019-01-23T12:38:46.089Z,-1.80
2019-01-23T12:43:51.369Z,-1.90
2019-01-23T12:48:57.623Z,-1.80
2019-01-23T12:54:04.038Z,-1.70
2019-01-23T12:59:10.072Z,-1.80
2019-01-23T13:04:16.115Z,-1.60
2019-01-23T13:09:21.961Z,-1.70
2019-01-23T13:14:41.570Z,-1.70
2019-01-23T13:19:47.823Z,-1.60
2019-01-23T13:24:54.011Z,-1.50
2019-01-23T13:30:00.172Z,-1.50
2019-01-23T13:35:11.099Z,-1.20
2019-01-23T13:40:24.069Z,-1.40
2019-01-23T13:45:30.301Z,-1.40
2019-01-23T13:50:37.493Z,-1.90
2019-01-23T13:55:42.894Z,-1.80
2019-01-23T14:00:49.460Z,-1.90
2019-01-23T14:05:55.800Z,-2.20
2019-01-23T14:11:02.199Z,-2.20
2019-01-23T14:16:08.762Z,-2.40
2019-01-23T14:21:14.967Z,-2.40
2019-01-23T14:26:21.299Z,-2.40
2019-01-23T14:31:28.084Z,-2.50
2019-01-23T14:36:34.382Z,-2.70
2019-01-23T14:41:40.514Z,-2.90
2019-01-23T14:46:45.746Z,-2.80
2019-01-23T14:51:51.950Z,-3.00
2019-01-23T14:56:57.837Z,-3.00
2019-01-23T15:02:10.068Z,-3.00
2019-01-23T15:07:38.991Z,-3.20
2019-01-23T15:12:44.335Z,-3.20
2019-01-23T15:17:50.800Z,-3.20
2019-01-23T15:22:59.921Z,-3.30
2019-01-23T15:28:06.092Z,-3.40
2019-01-23T15:33:12.463Z,-3.60
2019-01-23T15:38:18.758Z,-3.80
2019-01-23T15:43:37.572Z,-4.00
2019-01-23T15:48:42.901Z,-4.20
2019-01-23T15:53:49.644Z,-4.40
2019-01-23T15:58:55.840Z,-4.70
2019-01-23T16:04:02.074Z,-4.90
2019-01-23T16:09:08.500Z,-5.10
2019-01-23T16:14:14.970Z,-5.30
2019-01-23T16:19:21.305Z,-5.50
2019-01-23T16:24:27.582Z,-5.80
2019-01-23T16:29:45.597Z,-5.90
2019-01-23T16:34:51.248Z,-6.10
2019-01-23T16:39:58.174Z,-6.00
2019-01-23T16:45:09.834Z,-6.10
2019-01-23T16:50:22.340Z,-6.10
2019-01-23T16:55:28.809Z,-6.30
2019-01-23T17:00:35.768Z,-6.60
2019-01-23T17:05:41.162Z,-6.60
2019-01-23T17:10:46.880Z,-6.50
2019-01-23T17:15:52.465Z,-6.60
2019-01-23T17:21:17.239Z,-6.60
2019-01-23T17:26:23.920Z,-6.90
2019-01-23T17:31:30.324Z,-6.90
2019-01-23T17:36:36.771Z,-6.90
2019-01-23T17:41:42.370Z,-7.00
2019-01-23T17:46:50.505Z,-7.20
2019-01-23T17:51:57.087Z,-7.30
2019-01-23T17:57:03.670Z,-7.40
2019-01-23T18:02:10.259Z,-7.50
2019-01-23T18:07:16.920Z,-7.50
2019-01-23T18:12:44.055Z,-7.70
2019-01-23T18:17:50.567Z,-7.80
2019-01-23T18:22:57.308Z,-7.90
2019-01-23T18:28:03.879Z,-8.00
2019-01-23T18:33:39.014Z,-8.00
2019-01-23T18:39:09.156Z,-8.10
2019-01-23T18:44:41.740Z,-8.20
2019-01-23T18:50:08.946Z,-8.20
2019-01-23T18:55:18.262Z,-8.10
2019-01-23T19:00:24.677Z,-8.20
2019-01-23T19:05:42.932Z,-8.30
2019-01-23T19:10:50.364Z,-8.40
2019-01-23T19:15:56.896Z,-8.30
2019-01-23T19:21:05.068Z,-8.40
2019-01-23T19:26:33.034Z,-8.40
2019-01-23T19:31:39.575Z,-8.40
2019-01-23T19:36:45.235Z,-8.60
2019-01-23T19:41:51.755Z,-8.60
2019-01-23T19:46:58.226Z,-8.50
2019-01-23T19:52:06.146Z,-8.60
2019-01-23T19:57:12.880Z,-8.50
2019-01-23T20:02:19.643Z,-8.50
2019-01-23T20:07:26.353Z,-8.70
2019-01-23T20:12:32.990Z,-8.60
2019-01-23T20:17:40.113Z,-8.70
2019-01-23T20:22:46.438Z,-8.80
2019-01-23T20:27:52.109Z,-8.80
2019-01-23T20:32:59.002Z,-8.90
2019-01-23T20:38:05.540Z,-9.00
2019-01-23T20:43:12.384Z,-9.10
2019-01-23T20:48:18.873Z,-9.10
2019-01-23T20:53:25.384Z,-9.20
2019-01-23T20:58:32.093Z,-9.30
2019-01-23T21:03:38.485Z,-9.40
2019-01-23T21:08:44.118Z,-9.40
2019-01-23T21:13:50.917Z,-9.50
2019-01-23T21:18:57.437Z,-9.60
2019-01-23T21:24:03.969Z,-9.60
2019-01-23T21:29:10.605Z,-9.60
2019-01-23T21:34:16.930Z,-9.70
2019-01-23T21:39:23.316Z,-9.70
2019-01-23T21:44:29.462Z,-9.70
2019-01-23T21:49:35.668Z,-9.70
2019-01-23T21:54:42.011Z,-9.70
2019-01-23T21:59:48.603Z,-9.80
2019-01-23T22:04:55.228Z,-9.90
2019-01-23T22:10:01.869Z,-9.90
2019-01-23T22:15:32.559Z,-9.90
2019-01-23T22:20:39.097Z,-9.90
2019-01-23T22:25:44.743Z,-9.90
2019-01-23T22:30:51.320Z,-9.90
2019-01-23T22:35:57.855Z,-9.90
2019-01-23T22:41:04.467Z,-9.90
2019-01-23T22:46:11.113Z,-9.90
2019-01-23T22:51:17.852Z,-9.80
2019-01-23T22:56:24.385Z,-9.80
2019-01-23T23:01:30.868Z,-9.70
2019-01-23T23:06:37.422Z,-9.60
2019-01-23T23:11:43.170Z,-9.60
2019-01-23T23:16:49.705Z,-9.50
2019-01-23T23:21:56.203Z,-9.40
2019-01-23T23:27:02.377Z,-9.20
2019-01-23T23:32:09.061Z,-9.10
2019-01-23T23:37:15.843Z,-9.00
2019-01-23T23:42:22.352Z,-8.80
2019-01-23T23:47:29.042Z,-8.70
2019-01-23T23:53:15.441Z,-8.60
2019-01-23T23:58:22.111Z,-8.40
